Sirios Cement IV — 9HQE8 — position and weather

sailwx.info

Track history (hours):
 
Tides and Currents Weather Stations Pressure Air Temp Water Temp Dewpoint Dewpoint Depression Visibility Wind Speed Wind Dir Waves Ship Positions

Sirios Cement IV

Last reported at 2014-Nov-21 13:13 UTC. Time now 2014-Nov-28 09:47 UTC.
Position N 37°43' E 023°40'.

Length 134 m; draft 8.4 m.

Type: Cargo ship. MMSI: 256278000.

Date/timePositionNaut miles runAvg speedWind from/ knotsBaromVisibWave heightAir tempDewpointWater temp
2014-Nov-21 13:13N 37°43' E 023°40'7 9.9
2014-Nov-21 12:33N 37°49' E 023°37'9 8.6
2014-Nov-21 11:33N 37°57' E 023°33'5 4.6
2014-Nov-21 10:24N 38°03' E 023°32'0 0.0
2014-Nov-21 09:24N 38°03' E 023°32'0 0.0
2014-Nov-21 08:27N 38°03' E 023°32'0 0.0
2014-Nov-21 07:30N 38°03' E 023°32'0 0.0
2014-Nov-21 06:27N 38°03' E 023°32'  
2014-Nov-18 22:15N 38°03' E 023°32'1 0.1
2014-Nov-18 06:33N 38°02' E 023°32'8 8.1
2014-Nov-18 05:33N 37°54' E 023°35'1 1.0
2014-Nov-18 04:33N 37°54' E 023°36'8 7.6
2014-Nov-18 03:33N 37°47' E 023°41'  
Track history (hours):
 
Tides and Currents Weather Stations Pressure Air Temp Water Temp Dewpoint Dewpoint Depression Visibility Wind Speed Wind Dir Waves Ship Positions

Sirios Cement IV

Last reported at 2014-Nov-21 13:13 UTC. Time now 2014-Nov-28 09:47 UTC.
Position N 37°43' E 023°40'.

Length 134 m; draft 8.4 m.

Type: Cargo ship. MMSI: 256278000.

Date/timePositionNaut miles runAvg speedWind from/ knotsBaromVisibWave heightAir tempDewpointWater temp
2014-Nov-21 13:13N 37°43' E 023°40'7 9.9
2014-Nov-21 12:33N 37°49' E 023°37'9 8.6
2014-Nov-21 11:33N 37°57' E 023°33'5 4.6
2014-Nov-21 10:24N 38°03' E 023°32'0 0.0
2014-Nov-21 09:24N 38°03' E 023°32'0 0.0
2014-Nov-21 08:27N 38°03' E 023°32'0 0.0
2014-Nov-21 07:30N 38°03' E 023°32'0 0.0
2014-Nov-21 06:27N 38°03' E 023°32'  
2014-Nov-18 22:15N 38°03' E 023°32'1 0.1
2014-Nov-18 06:33N 38°02' E 023°32'8 8.1
2014-Nov-18 05:33N 37°54' E 023°35'1 1.0
2014-Nov-18 04:33N 37°54' E 023°36'8 7.6
2014-Nov-18 03:33N 37°47' E 023°41'  

Dump ship's entire track history